Time;durP1;ratioP1;P1;durP2;ratioP2;P2;SDS_P1;SDS_P2;PMS_P1;PMS_P2;Temp;Humidity;BMP_temperature;BMP_pressure;BME280_temperature;BME280_humidity;BME280_pressure;Samples;Min_cycle;Max_cycle;Signal;HPM_P1;HPM_P2
2022/12/15 00:40:10;;;;;;;;;;;7.50;99.90;;;;;;5079584;28;19919;-70
2022/12/15 00:42:35;;;;;;;;;;;7.60;99.90;;;;;;5076525;28;20279;-70
2022/12/15 00:45:01;;;;;;;;;;;7.60;99.90;;;;;;5076019;28;19920;-71
2022/12/15 00:47:26;;;;;;;;;;;7.70;99.90;;;;;;5052309;28;19996;-73
2022/12/15 01:20:16;;;;;;;;;;;7.60;99.90;;;;;;5058344;28;19923;-71
2022/12/15 01:22:46;;;;;;;;;;;7.70;99.90;;;;;;5069920;28;19915;-71
2022/12/15 01:25:12;;;;;;;;;;;7.60;99.90;;;;;;5057764;28;19916;-71
2022/12/15 01:27:38;;;;;;;;;;;7.60;99.90;;;;;;5055529;28;20292;-71
2022/12/15 01:30:04;;;;;;;;;;;7.70;99.90;;;;;;5055101;28;19908;-71
2022/12/15 01:32:30;;;;;;;;;;;7.70;99.90;;;;;;5075030;28;19912;-71
2022/12/15 01:34:56;;;;;;;;;;;7.60;99.90;;;;;;5058655;28;19917;-71
2022/12/15 01:37:22;;;;;;;;;;;7.60;99.90;;;;;;5055966;28;19969;-71
2022/12/15 01:42:31;;;;;;;;;;;7.60;99.90;;;;;;5073049;28;20342;-71
2022/12/15 01:45:16;;;;;;;;;;;7.70;99.90;;;;;;5074079;28;19916;-70
2022/12/15 01:47:41;;;;;;;;;;;7.70;99.90;;;;;;5062542;28;20342;-71
2022/12/15 01:50:12;;;;;;;;;;;7.70;99.90;;;;;;5070755;28;19951;-71
2022/12/15 01:52:38;;;;;;;;;;;7.80;99.90;;;;;;5068964;28;19917;-71
2022/12/15 01:55:04;;;;;;;;;;;7.80;99.90;;;;;;5065156;28;19974;-72
2022/12/15 01:57:30;;;;;;;;;;;7.80;99.90;;;;;;5076978;28;19995;-70
2022/12/15 01:59:57;;;;;;;;;;;7.90;99.90;;;;;;5056750;28;20599;-71
2022/12/15 02:02:24;;;;;;;;;;;7.80;99.90;;;;;;5065885;28;19920;-71
2022/12/15 02:04:51;;;;;;;;;;;7.90;99.90;;;;;;5062313;28;20011;-71
2022/12/15 02:07:17;;;;;;;;;;;8.00;99.90;;;;;;5072001;28;20300;-71
2022/12/15 02:09:44;;;;;;;;;;;8.00;99.90;;;;;;5053933;28;19919;-70
2022/12/15 02:12:14;;;;;;;;;;;8.00;99.90;;;;;;5064776;28;19936;-70
2022/12/15 02:14:45;;;;;;;;;;;7.90;99.90;;;;;;5066168;28;20009;-71
2022/12/15 02:17:29;;;;;;;;;;;7.90;99.90;;;;;;5068922;28;19912;-71
2022/12/15 02:20:25;;;;;;;;;;;7.90;99.90;;;;;;5069288;28;19920;-71
2022/12/15 02:23:00;;;;;;;;;;;7.80;99.90;;;;;;5060637;28;19917;-70
2022/12/15 02:25:31;;;;;;;;;;;7.80;99.90;;;;;;5063882;28;20574;-71
2022/12/15 02:28:00;;;;;;;;;;;7.80;99.90;;;;;;5052463;28;20498;-71
2022/12/15 02:30:29;;;;;;;;;;;7.70;99.90;;;;;;5067704;28;20413;-71
2022/12/15 02:33:21;;;;;;;;;;;7.70;99.90;;;;;;5071709;28;19912;-71
2022/12/15 02:35:55;;;;;;;;;;;7.70;99.90;;;;;;5064297;28;20411;-71
2022/12/15 02:38:32;;;;;;;;;;;7.90;99.90;;;;;;5069735;28;19943;-71
2022/12/15 02:40:59;;;;;;;;;;;7.90;99.90;;;;;;5058587;28;19924;-71
2022/12/15 02:43:26;;;;;;;;;;;7.80;99.90;;;;;;5073113;28;19959;-71
2022/12/15 02:45:54;;;;;;;;;;;7.80;99.90;;;;;;5064502;28;19919;-70
2022/12/15 02:48:29;;;;;;;;;;;7.80;99.90;;;;;;5070991;28;20066;-71
2022/12/15 02:50:59;;;;;;;;;;;7.80;99.90;;;;;;5059652;28;20029;-73
2022/12/15 02:53:46;;;;;;;;;;;7.80;99.90;;;;;;5046682;28;19935;-70
2022/12/15 02:56:26;;;;;;;;;;;7.70;99.90;;;;;;5057196;28;19923;-70
2022/12/15 02:59:10;;;;;;;;;;;7.80;99.90;;;;;;5053881;28;19925;-71
2022/12/15 03:01:39;;;;;;;;;;;7.70;99.90;;;;;;5057911;28;19928;-70
2022/12/15 03:04:06;;;;;;;;;;;7.70;99.90;;;;;;5066196;28;19913;-71
2022/12/15 03:06:32;;;;;;;;;;;7.70;99.90;;;;;;5072319;28;20376;-70
2022/12/15 03:08:58;;;;;;;;;;;7.60;99.90;;;;;;5060956;28;19912;-71
2022/12/15 03:11:23;;;;;;;;;;;7.60;99.90;;;;;;5054978;28;20364;-71
2022/12/15 03:13:49;;;;;;;;;;;7.60;99.90;;;;;;5040526;28;19920;-71
2022/12/15 03:16:15;;;;;;;;;;;7.60;99.90;;;;;;5055932;28;19992;-71
2022/12/15 03:18:41;;;;;;;;;;;7.60;99.90;;;;;;5042840;28;19932;-71
2022/12/15 03:21:07;;;;;;;;;;;7.60;99.90;;;;;;5051280;28;20389;-71
2022/12/15 03:23:33;;;;;;;;;;;7.60;99.90;;;;;;5060983;28;19924;-70
2022/12/15 03:25:58;;;;;;;;;;;7.60;99.90;;;;;;5061772;28;20364;-70
2022/12/15 03:28:24;;;;;;;;;;;7.70;99.90;;;;;;5058531;28;19951;-70
2022/12/15 03:30:50;;;;;;;;;;;7.70;99.90;;;;;;5055800;28;19975;-73
2022/12/15 03:33:15;;;;;;;;;;;7.70;99.90;;;;;;5053063;28;20761;-70
2022/12/15 03:35:41;;;;;;;;;;;7.80;99.90;;;;;;5052957;28;19921;-70
2022/12/15 03:38:07;;;;;;;;;;;7.80;99.90;;;;;;5055852;28;19913;-70
2022/12/15 03:40:32;;;;;;;;;;;7.80;99.90;;;;;;5059131;28;19927;-71
2022/12/15 03:42:58;;;;;;;;;;;7.80;99.90;;;;;;5053891;28;20356;-70
2022/12/15 03:45:25;;;;;;;;;;;7.80;99.90;;;;;;5070063;28;19944;-70
2022/12/15 03:47:51;;;;;;;;;;;7.80;99.90;;;;;;5070696;28;19958;-71
2022/12/15 03:50:18;;;;;;;;;;;7.80;99.90;;;;;;5068934;28;19913;-70
2022/12/15 03:52:44;;;;;;;;;;;7.90;99.90;;;;;;5060051;28;19917;-71
2022/12/15 03:55:10;;;;;;;;;;;7.90;99.90;;;;;;5063202;28;20384;-70
2022/12/15 03:57:36;;;;;;;;;;;8.00;99.90;;;;;;5068874;28;19912;-70
2022/12/15 04:00:02;;;;;;;;;;;7.90;99.90;;;;;;5073797;28;20265;-69
2022/12/15 04:02:28;;;;;;;;;;;7.80;99.90;;;;;;5073207;28;19919;-71
2022/12/15 04:04:54;;;;;;;;;;;7.80;99.90;;;;;;5074617;28;19913;-71
2022/12/15 04:07:19;;;;;;;;;;;7.80;99.90;;;;;;5065222;28;20058;-71
2022/12/15 04:09:45;;;;;;;;;;;7.80;99.90;;;;;;5074729;28;19912;-72
2022/12/15 04:12:11;;;;;;;;;;;7.70;99.90;;;;;;5073986;28;19923;-71
2022/12/15 04:14:41;;;;;;;;;;;7.70;99.90;;;;;;5076696;28;19963;-71
2022/12/15 04:17:10;;;;;;;;;;;7.60;99.90;;;;;;5075711;28;20205;-72
2022/12/15 04:22:20;;;;;;;;;;;7.60;99.90;;;;;;5080238;28;19974;-71
2022/12/15 05:33:13;;;;;;;;;;;7.80;99.90;;;;;;5067332;28;19968;-71
2022/12/15 05:35:39;;;;;;;;;;;7.90;99.90;;;;;;5070417;28;19956;-70
2022/12/15 05:38:04;;;;;;;;;;;7.80;99.90;;;;;;5070827;28;20296;-71
2022/12/15 05:40:30;;;;;;;;;;;7.80;99.90;;;;;;5073759;28;20352;-71
2022/12/15 05:42:59;;;;;;;;;;;7.70;99.90;;;;;;5075838;28;20110;-73
2022/12/15 05:45:25;;;;;;;;;;;7.70;99.90;;;;;;5074132;28;19913;-71
2022/12/15 05:47:51;;;;;;;;;;;7.60;99.90;;;;;;5070491;28;19987;-71
2022/12/15 05:50:17;;;;;;;;;;;7.60;99.90;;;;;;5059051;28;20340;-71
2022/12/15 05:52:43;;;;;;;;;;;7.50;99.90;;;;;;5060809;28;19917;-71
2022/12/15 05:55:09;;;;;;;;;;;7.50;99.90;;;;;;5060185;28;19916;-71
2022/12/15 05:57:34;;;;;;;;;;;7.50;99.90;;;;;;5060935;28;19924;-71
2022/12/15 06:00:00;;;;;;;;;;;7.50;99.90;;;;;;5061667;28;19964;-70
2022/12/15 06:02:29;;;;;;;;;;;7.50;99.90;;;;;;5060640;28;20371;-71
2022/12/15 06:04:54;;;;;;;;;;;7.40;99.90;;;;;;5059607;28;19913;-71
2022/12/15 06:07:20;;;;;;;;;;;7.40;99.90;;;;;;5059087;28;20296;-71
2022/12/15 06:09:46;;;;;;;;;;;7.40;99.90;;;;;;5059291;28;19921;-70
2022/12/15 06:12:11;;;;;;;;;;;7.50;99.90;;;;;;5060050;28;19912;-71
2022/12/15 06:14:37;;;;;;;;;;;7.50;99.90;;;;;;5061845;28;19912;-71
2022/12/15 06:17:03;;;;;;;;;;;7.50;99.90;;;;;;5074633;28;19923;-70
2022/12/15 06:19:28;;;;;;;;;;;7.50;99.90;;;;;;5081663;28;20378;-71
2022/12/15 06:21:54;;;;;;;;;;;7.60;99.90;;;;;;5076748;28;19971;-71
2022/12/15 06:24:20;;;;;;;;;;;7.60;99.90;;;;;;5068867;28;19982;-72
2022/12/15 06:26:45;;;;;;;;;;;7.60;99.90;;;;;;5071390;28;19938;-71
2022/12/15 06:29:12;;;;;;;;;;;7.50;99.90;;;;;;5073973;28;20291;-70
2022/12/15 06:31:38;;;;;;;;;;;7.40;99.90;;;;;;5059274;28;19913;-70
2022/12/15 06:34:04;;;;;;;;;;;7.40;99.90;;;;;;5058490;28;19912;-69
2022/12/15 06:36:30;;;;;;;;;;;7.40;99.90;;;;;;5059345;28;19969;-71
2022/12/15 06:39:00;;;;;;;;;;;7.60;99.90;;;;;;5059561;28;19929;-70
2022/12/15 06:41:26;;;;;;;;;;;7.60;99.90;;;;;;5061793;28;19939;-71
2022/12/15 06:43:54;;;;;;;;;;;7.70;99.90;;;;;;5055299;28;19913;-71
2022/12/15 06:46:20;;;;;;;;;;;7.70;99.90;;;;;;5060254;28;19917;-70
2022/12/15 06:48:46;;;;;;;;;;;7.80;99.90;;;;;;5072419;28;19947;-72
2022/12/15 06:51:13;;;;;;;;;;;7.90;99.90;;;;;;5055670;28;19923;-70
2022/12/15 06:53:40;;;;;;;;;;;7.90;99.90;;;;;;5064532;28;19921;-71
2022/12/15 06:56:07;;;;;;;;;;;7.90;99.90;;;;;;5058983;28;19921;-75
2022/12/15 06:58:33;;;;;;;;;;;7.90;99.90;;;;;;5057272;28;19951;-71
2022/12/15 07:01:03;;;;;;;;;;;7.90;99.90;;;;;;5061210;28;19909;-72
2022/12/15 07:03:29;;;;;;;;;;;7.90;99.90;;;;;;5054773;28;19952;-70
2022/12/15 07:06:05;;;;;;;;;;;7.90;99.90;;;;;;5063701;28;19919;-69
2022/12/15 07:08:31;;;;;;;;;;;8.20;99.90;;;;;;5060074;28;19913;-70
2022/12/15 07:10:57;;;;;;;;;;;8.20;99.90;;;;;;5054422;28;20462;-70
2022/12/15 07:13:23;;;;;;;;;;;8.10;99.90;;;;;;5057298;28;20429;-71
2022/12/15 07:15:48;;;;;;;;;;;8.10;99.90;;;;;;5055638;28;19954;-71
2022/12/15 07:18:15;;;;;;;;;;;8.10;99.90;;;;;;5055587;28;19960;-71
2022/12/15 07:20:40;;;;;;;;;;;8.20;99.90;;;;;;5055992;28;20388;-70
2022/12/15 07:23:08;;;;;;;;;;;8.30;99.90;;;;;;5057403;28;19912;-71
2022/12/15 07:25:37;;;;;;;;;;;8.20;99.90;;;;;;5059091;28;19921;-71
2022/12/15 07:28:07;;;;;;;;;;;8.40;99.90;;;;;;5057319;28;19936;-70
2022/12/15 07:30:33;;;;;;;;;;;8.40;99.90;;;;;;5057707;28;20059;-71
2022/12/15 07:32:58;;;;;;;;;;;8.50;99.90;;;;;;5057403;28;20668;-70
2022/12/15 07:35:24;;;;;;;;;;;8.50;99.90;;;;;;5057555;28;19913;-70
2022/12/15 07:37:49;;;;;;;;;;;8.60;99.90;;;;;;5061616;28;19943;-70
2022/12/15 07:40:15;;;;;;;;;;;8.60;99.90;;;;;;5072993;28;19923;-70
2022/12/15 07:42:41;;;;;;;;;;;8.60;99.90;;;;;;5063571;28;19913;-70
2022/12/15 07:45:07;;;;;;;;;;;8.50;99.90;;;;;;5068042;28;20407;-69
2022/12/15 07:47:33;;;;;;;;;;;8.40;99.90;;;;;;5075195;28;19912;-70
2022/12/15 07:49:59;;;;;;;;;;;8.40;99.90;;;;;;5055990;28;19913;-70
2022/12/15 07:52:25;;;;;;;;;;;8.30;99.90;;;;;;5076948;28;19919;-71
2022/12/15 07:54:50;;;;;;;;;;;8.30;99.90;;;;;;5071654;28;19920;-71
2022/12/15 07:57:16;;;;;;;;;;;8.30;99.90;;;;;;5072520;28;20410;-72
2022/12/15 07:59:42;;;;;;;;;;;8.30;99.90;;;;;;5077269;28;19912;-71
2022/12/15 08:02:11;;;;;;;;;;;8.50;99.90;;;;;;5059741;28;19921;-70
2022/12/15 08:04:37;;;;;;;;;;;8.60;99.90;;;;;;5090087;28;19977;-71
2022/12/15 08:07:05;;;;;;;;;;;8.50;99.90;;;;;;5072350;28;19920;-71
2022/12/15 08:09:31;;;;;;;;;;;8.60;99.90;;;;;;5074794;28;19908;-70
2022/12/15 08:11:57;;;;;;;;;;;8.60;99.90;;;;;;5074343;28;20011;-70
2022/12/15 08:14:28;;;;;;;;;;;8.50;99.90;;;;;;5073460;28;19944;-70
2022/12/15 08:16:57;;;;;;;;;;;8.60;99.90;;;;;;5073410;28;19934;-71
2022/12/15 08:19:23;;;;;;;;;;;8.50;99.90;;;;;;5068372;28;19917;-70
2022/12/15 08:21:49;;;;;;;;;;;8.40;99.90;;;;;;5078565;28;19983;-69
2022/12/15 08:24:16;;;;;;;;;;;8.50;99.90;;;;;;5074234;28;19916;-71
2022/12/15 08:26:42;;;;;;;;;;;8.40;99.90;;;;;;5081014;28;20002;-69
2022/12/15 08:29:10;;;;;;;;;;;8.40;99.90;;;;;;5077634;28;19912;-70
2022/12/15 08:31:36;;;;;;;;;;;8.40;99.90;;;;;;5078493;28;19980;-73
2022/12/15 08:34:02;;;;;;;;;;;8.40;99.90;;;;;;5070196;28;20394;-70
2022/12/15 08:36:28;;;;;;;;;;;8.40;99.90;;;;;;5069198;28;19934;-70
2022/12/15 08:38:55;;;;;;;;;;;8.50;99.90;;;;;;5072991;28;19917;-70
2022/12/15 08:41:25;;;;;;;;;;;8.50;99.90;;;;;;5056155;28;19912;-70
2022/12/15 08:43:52;;;;;;;;;;;8.50;99.90;;;;;;5078070;28;19919;-70
2022/12/15 08:46:19;;;;;;;;;;;8.50;99.90;;;;;;5069776;28;19912;-71
2022/12/15 08:48:45;;;;;;;;;;;8.50;99.90;;;;;;5067287;28;19912;-70
2022/12/15 08:51:11;;;;;;;;;;;8.60;99.90;;;;;;5076152;28;19952;-70
2022/12/15 08:53:37;;;;;;;;;;;8.60;99.90;;;;;;5056368;28;20404;-69
2022/12/15 08:56:04;;;;;;;;;;;8.60;99.90;;;;;;5060802;28;19920;-70
2022/12/15 08:58:30;;;;;;;;;;;8.60;99.90;;;;;;5058868;28;19948;-70
2022/12/15 09:01:00;;;;;;;;;;;8.60;99.90;;;;;;5078516;28;20556;-70
2022/12/15 09:03:26;;;;;;;;;;;8.60;99.90;;;;;;5067860;28;19921;-70
2022/12/15 09:05:52;;;;;;;;;;;8.60;99.90;;;;;;5072871;28;19948;-72
2022/12/15 09:08:24;;;;;;;;;;;8.60;99.90;;;;;;5086431;28;19960;-72
2022/12/15 09:10:50;;;;;;;;;;;8.60;99.90;;;;;;5069665;28;19991;-72
2022/12/15 09:13:15;;;;;;;;;;;8.60;99.90;;;;;;5066396;28;19980;-73
2022/12/15 09:15:44;;;;;;;;;;;8.50;99.90;;;;;;5061977;28;20025;-72
2022/12/15 09:18:09;;;;;;;;;;;8.50;99.90;;;;;;5053925;28;19913;-72
2022/12/15 09:20:36;;;;;;;;;;;8.50;99.90;;;;;;5081305;28;19928;-71
2022/12/15 09:23:01;;;;;;;;;;;8.50;99.90;;;;;;5071434;28;19919;-72
2022/12/15 09:25:27;;;;;;;;;;;8.50;99.90;;;;;;5067635;28;19912;-72
2022/12/15 09:27:53;;;;;;;;;;;8.40;99.90;;;;;;5072547;28;19979;-72
2022/12/15 09:30:18;;;;;;;;;;;8.40;99.90;;;;;;5072988;28;19916;-71
2022/12/15 09:32:44;;;;;;;;;;;8.50;99.90;;;;;;5060437;28;19913;-71
2022/12/15 09:35:09;;;;;;;;;;;8.50;99.90;;;;;;5063587;28;19974;-71
2022/12/15 09:37:35;;;;;;;;;;;8.60;99.90;;;;;;5072177;28;20402;-72
2022/12/15 09:40:01;;;;;;;;;;;8.70;99.90;;;;;;5073043;28;20350;-72
2022/12/15 09:42:28;;;;;;;;;;;8.80;99.90;;;;;;5067384;28;20303;-71
2022/12/15 09:45:17;;;;;;;;;;;8.80;99.90;;;;;;5072536;28;19920;-71
2022/12/15 09:47:51;;;;;;;;;;;8.90;99.90;;;;;;5057036;28;19920;-72
2022/12/15 09:50:18;;;;;;;;;;;8.80;99.90;;;;;;5072516;28;19985;-73
2022/12/15 09:52:46;;;;;;;;;;;8.90;99.90;;;;;;5082232;28;20003;-71
2022/12/15 09:55:16;;;;;;;;;;;9.00;99.90;;;;;;5068586;28;19923;-71
2022/12/15 09:57:45;;;;;;;;;;;8.90;99.90;;;;;;5066588;28;19920;-72
2022/12/15 10:00:24;;;;;;;;;;;8.80;99.90;;;;;;5065091;28;19916;-72
2022/12/15 10:03:02;;;;;;;;;;;8.80;99.90;;;;;;5066290;28;19919;-72
2022/12/15 10:05:46;;;;;;;;;;;8.70;99.90;;;;;;5062265;28;19913;-72
2022/12/15 10:08:13;;;;;;;;;;;8.70;99.90;;;;;;5052694;28;19977;-71
2022/12/15 10:10:57;;;;;;;;;;;8.60;99.90;;;;;;5071511;28;19974;-72
2022/12/15 10:13:37;;;;;;;;;;;8.70;99.90;;;;;;5066646;28;19966;-72
2022/12/15 10:16:06;;;;;;;;;;;8.70;99.90;;;;;;5068263;28;19934;-71
2022/12/15 10:18:36;;;;;;;;;;;8.70;99.90;;;;;;5070252;28;19928;-71
2022/12/15 10:21:01;;;;;;;;;;;8.70;99.90;;;;;;5073697;28;19917;-71
2022/12/15 10:23:27;;;;;;;;;;;8.90;99.90;;;;;;5054399;28;19936;-71
2022/12/15 10:26:12;;;;;;;;;;;8.80;99.90;;;;;;5066158;28;19995;-71
2022/12/15 10:28:45;;;;;;;;;;;8.80;99.90;;;;;;5069912;28;19912;-72
2022/12/15 10:31:25;;;;;;;;;;;8.90;99.90;;;;;;5070493;28;20372;-71
2022/12/15 10:34:03;;;;;;;;;;;8.90;99.90;;;;;;5065902;28;19924;-71
2022/12/15 10:36:28;;;;;;;;;;;8.90;99.90;;;;;;5070868;28;19917;-71
2022/12/15 10:38:54;;;;;;;;;;;8.90;99.90;;;;;;5071853;28;19982;-71
2022/12/15 10:41:21;;;;;;;;;;;8.90;99.90;;;;;;5070710;28;19913;-71
2022/12/15 10:43:47;;;;;;;;;;;8.90;99.90;;;;;;5070710;28;20291;-71
2022/12/15 10:46:17;;;;;;;;;;;8.80;99.90;;;;;;5070468;28;19923;-71
2022/12/15 10:48:55;;;;;;;;;;;8.80;99.90;;;;;;5069084;28;19912;-72
2022/12/15 10:51:21;;;;;;;;;;;8.80;99.90;;;;;;5064090;28;20335;-71
2022/12/15 10:53:59;;;;;;;;;;;8.80;99.90;;;;;;5054965;28;19913;-71
2022/12/15 10:56:26;;;;;;;;;;;8.80;99.90;;;;;;5070664;28;19952;-71
2022/12/15 10:58:53;;;;;;;;;;;8.90;99.90;;;;;;5055042;28;19955;-71
2022/12/15 11:01:22;;;;;;;;;;;8.90;99.90;;;;;;5055513;28;19924;-71
2022/12/15 11:03:51;;;;;;;;;;;8.90;99.90;;;;;;5054768;28;20394;-71
2022/12/15 11:06:20;;;;;;;;;;;9.00;99.90;;;;;;5059594;28;19909;-71
2022/12/15 11:08:46;;;;;;;;;;;9.00;99.90;;;;;;5055271;28;20022;-72
2022/12/15 11:14:18;;;;;;;;;;;9.00;99.90;;;;;;5054062;28;19963;-72
2022/12/15 11:16:46;;;;;;;;;;;9.00;99.90;;;;;;5060758;28;19917;-71
2022/12/15 11:19:30;;;;;;;;;;;9.10;99.90;;;;;;5069985;28;19923;-71
2022/12/15 11:21:58;;;;;;;;;;;9.10;99.90;;;;;;5045688;28;19924;-71
2022/12/15 11:24:44;;;;;;;;;;;9.20;99.90;;;;;;5062543;28;19920;-71
2022/12/15 11:27:14;;;;;;;;;;;9.20;99.90;;;;;;5067924;28;19920;-72
2022/12/15 11:29:46;;;;;;;;;;;9.30;99.90;;;;;;5063462;28;20254;-71
2022/12/15 11:32:12;;;;;;;;;;;9.40;99.90;;;;;;5070076;28;19920;-72
2022/12/15 11:34:43;;;;;;;;;;;9.30;99.90;;;;;;5069238;28;20022;-72
2022/12/15 11:37:08;;;;;;;;;;;9.30;99.90;;;;;;5066952;28;19920;-72
2022/12/15 11:39:40;;;;;;;;;;;9.40;99.90;;;;;;5073115;28;20287;-71
2022/12/15 11:42:14;;;;;;;;;;;9.30;99.90;;;;;;5072685;28;20001;-71
2022/12/15 11:44:42;;;;;;;;;;;9.30;99.90;;;;;;5070767;28;20455;-72
2022/12/15 11:47:20;;;;;;;;;;;9.20;99.90;;;;;;5060575;28;19913;-72
2022/12/15 11:49:46;;;;;;;;;;;9.20;99.90;;;;;;5065506;28;20406;-72
2022/12/15 11:52:21;;;;;;;;;;;9.20;99.90;;;;;;5050664;28;19912;-72
2022/12/15 11:54:46;;;;;;;;;;;9.30;99.90;;;;;;5063297;28;19925;-72
2022/12/15 11:57:22;;;;;;;;;;;9.50;99.90;;;;;;5054658;28;20000;-72
2022/12/15 11:59:58;;;;;;;;;;;9.50;99.90;;;;;;5065033;28;19924;-71
2022/12/15 12:02:34;;;;;;;;;;;9.60;99.90;;;;;;5066437;28;19913;-72
2022/12/15 12:05:18;;;;;;;;;;;9.60;99.90;;;;;;5070216;28;20000;-73
2022/12/15 12:07:46;;;;;;;;;;;9.60;99.90;;;;;;5057665;28;19913;-72
2022/12/15 12:10:15;;;;;;;;;;;9.70;99.90;;;;;;5052637;28;19908;-71
2022/12/15 12:13:07;;;;;;;;;;;9.70;99.90;;;;;;5060582;28;20019;-72
2022/12/15 12:15:41;;;;;;;;;;;9.70;99.90;;;;;;5037687;28;19912;-71
2022/12/15 12:18:14;;;;;;;;;;;9.70;99.90;;;;;;5071781;28;19952;-71
2022/12/15 12:20:47;;;;;;;;;;;9.70;99.90;;;;;;5063764;28;20011;-72
2022/12/15 12:23:12;;;;;;;;;;;9.70;99.90;;;;;;5054251;28;19913;-72
2022/12/15 12:25:57;;;;;;;;;;;9.70;99.90;;;;;;5069992;28;19962;-72
2022/12/15 12:28:26;;;;;;;;;;;9.70;99.90;;;;;;5065736;28;20444;-72
2022/12/15 12:30:52;;;;;;;;;;;9.80;99.90;;;;;;5069298;28;19982;-72
2022/12/15 12:33:24;;;;;;;;;;;9.80;99.90;;;;;;5067515;28;20023;-72
2022/12/15 12:35:55;;;;;;;;;;;9.80;99.90;;;;;;5060606;28;19913;-72
2022/12/15 12:38:25;;;;;;;;;;;9.80;99.90;;;;;;5073160;28;19949;-72
2022/12/15 12:41:03;;;;;;;;;;;9.80;99.90;;;;;;5068307;28;20285;-71
2022/12/15 12:43:30;;;;;;;;;;;9.80;99.90;;;;;;5070588;28;19913;-73
2022/12/15 12:46:02;;;;;;;;;;;9.90;99.90;;;;;;5072204;28;19966;-71
2022/12/15 12:48:46;;;;;;;;;;;9.90;99.90;;;;;;5071494;28;19919;-75
2022/12/15 12:51:20;;;;;;;;;;;10.00;99.90;;;;;;5069850;28;19919;-73
2022/12/15 12:53:46;;;;;;;;;;;10.00;99.90;;;;;;5057953;28;19913;-74
2022/12/15 12:56:31;;;;;;;;;;;10.00;99.90;;;;;;5060321;28;19939;-73
2022/12/15 12:58:56;;;;;;;;;;;10.00;99.90;;;;;;5054074;28;19913;-74
2022/12/15 13:01:27;;;;;;;;;;;10.00;99.90;;;;;;5059791;28;19913;-74
2022/12/15 13:04:19;;;;;;;;;;;10.00;99.90;;;;;;5068270;28;19931;-73
2022/12/15 13:06:45;;;;;;;;;;;10.00;99.90;;;;;;5036335;28;20015;-73
2022/12/15 13:09:17;;;;;;;;;;;10.00;99.90;;;;;;5074462;28;19948;-74
2022/12/15 13:11:52;;;;;;;;;;;10.10;99.90;;;;;;5068096;28;19919;-73
2022/12/15 13:14:19;;;;;;;;;;;10.10;99.90;;;;;;5054270;28;20265;-73
2022/12/15 13:16:45;;;;;;;;;;;10.10;99.90;;;;;;5071895;28;19916;-74
2022/12/15 13:19:11;;;;;;;;;;;10.10;99.90;;;;;;5064031;28;20007;-73
2022/12/15 13:21:43;;;;;;;;;;;10.20;99.90;;;;;;5073755;28;19935;-74
2022/12/15 13:24:24;;;;;;;;;;;10.20;99.90;;;;;;5071687;28;19927;-74
2022/12/15 13:26:49;;;;;;;;;;;10.20;99.90;;;;;;5064437;28;19913;-73
2022/12/15 13:29:18;;;;;;;;;;;10.30;99.90;;;;;;5072432;28;19916;-74
2022/12/15 13:31:48;;;;;;;;;;;10.30;99.90;;;;;;5058426;28;20863;-73
2022/12/15 13:34:16;;;;;;;;;;;10.30;99.90;;;;;;5068249;28;19916;-73
2022/12/15 13:36:42;;;;;;;;;;;10.20;99.90;;;;;;5073492;28;19912;-73
2022/12/15 13:39:11;;;;;;;;;;;10.20;99.90;;;;;;5064791;28;19924;-73
2022/12/15 13:42:03;;;;;;;;;;;10.30;99.90;;;;;;5070644;28;19913;-73
2022/12/15 13:44:32;;;;;;;;;;;10.20;99.90;;;;;;5071354;28;19983;-73
2022/12/15 13:47:08;;;;;;;;;;;10.20;99.90;;;;;;5072437;28;19923;-73
2022/12/15 13:49:48;;;;;;;;;;;10.20;99.90;;;;;;5072972;28;19912;-73
2022/12/15 13:52:23;;;;;;;;;;;10.20;99.90;;;;;;5068944;28;20525;-73
2022/12/15 13:54:53;;;;;;;;;;;10.10;99.90;;;;;;5066506;28;19970;-73
2022/12/15 13:57:19;;;;;;;;;;;10.10;99.90;;;;;;5069175;28;19917;-73
2022/12/15 13:59:55;;;;;;;;;;;10.10;99.90;;;;;;5050178;28;19983;-73
2022/12/15 14:02:28;;;;;;;;;;;10.00;99.90;;;;;;5068847;28;20334;-73
2022/12/15 14:05:04;;;;;;;;;;;10.00;99.90;;;;;;5064656;28;19917;-73
2022/12/15 14:07:29;;;;;;;;;;;10.10;99.90;;;;;;5061591;28;19912;-71
2022/12/15 14:09:55;;;;;;;;;;;10.00;99.90;;;;;;5069875;28;19919;-71
2022/12/15 14:12:21;;;;;;;;;;;10.00;99.90;;;;;;5066264;28;19948;-71
2022/12/15 14:14:47;;;;;;;;;;;10.00;99.90;;;;;;5067678;28;20015;-72
2022/12/15 14:17:15;;;;;;;;;;;10.00;99.90;;;;;;5064726;28;20047;-72
2022/12/15 14:19:42;;;;;;;;;;;10.10;99.90;;;;;;5061713;28;21040;-72
2022/12/15 14:22:37;;;;;;;;;;;10.10;99.90;;;;;;5069365;28;20000;-72
2022/12/15 14:25:19;;;;;;;;;;;10.20;99.90;;;;;;5058164;28;19912;-72
2022/12/15 14:27:45;;;;;;;;;;;10.10;99.90;;;;;;5060827;28;20218;-72
2022/12/15 14:30:13;;;;;;;;;;;10.10;99.90;;;;;;5066876;28;19934;-72
2022/12/15 14:32:43;;;;;;;;;;;10.10;99.90;;;;;;5065297;28;20011;-72
2022/12/15 14:35:19;;;;;;;;;;;10.10;99.90;;;;;;5067145;28;20074;-72
2022/12/15 14:37:45;;;;;;;;;;;10.10;99.90;;;;;;5060066;28;19936;-73
2022/12/15 14:40:12;;;;;;;;;;;10.10;99.90;;;;;;5067832;28;20435;-73
2022/12/15 14:42:39;;;;;;;;;;;10.20;99.90;;;;;;5068458;28;19916;-73
2022/12/15 14:45:05;;;;;;;;;;;10.10;99.90;;;;;;5070618;28;19916;-72
2022/12/15 14:47:32;;;;;;;;;;;10.20;99.90;;;;;;5059791;28;19931;-73
2022/12/15 14:50:00;;;;;;;;;;;10.10;99.90;;;;;;5072698;28;20368;-71
2022/12/15 14:55:39;;;;;;;;;;;10.10;99.90;;;;;;5066178;28;20372;-71
2022/12/15 14:58:22;;;;;;;;;;;10.00;99.90;;;;;;5067850;28;20308;-73
2022/12/15 15:00:49;;;;;;;;;;;10.00;99.90;;;;;;5070198;28;20367;-71
2022/12/15 15:03:17;;;;;;;;;;;10.00;99.90;;;;;;5070053;28;19923;-71
2022/12/15 15:06:18;;;;;;;;;;;10.00;99.90;;;;;;5066311;28;19960;-71
2022/12/15 15:08:48;;;;;;;;;;;10.00;99.90;;;;;;4972058;28;20444;-71
2022/12/15 15:11:20;;;;;;;;;;;10.00;99.90;;;;;;5053835;28;19916;-71
2022/12/15 15:13:46;;;;;;;;;;;10.10;99.90;;;;;;5066132;28;19947;-71
2022/12/15 15:16:16;;;;;;;;;;;10.10;99.90;;;;;;5058106;28;19932;-71
2022/12/15 15:18:42;;;;;;;;;;;10.10;99.90;;;;;;5057336;28;19909;-71
2022/12/15 15:21:13;;;;;;;;;;;10.10;99.90;;;;;;5062180;28;19917;-72
2022/12/15 15:23:39;;;;;;;;;;;10.10;99.90;;;;;;5051446;28;19924;-71
2022/12/15 15:26:04;;;;;;;;;;;10.10;99.90;;;;;;5072343;28;19913;-72
2022/12/15 15:28:40;;;;;;;;;;;10.00;99.90;;;;;;5060344;28;20318;-71
2022/12/15 15:31:26;;;;;;;;;;;10.00;99.90;;;;;;5070766;28;19916;-74
2022/12/15 15:33:53;;;;;;;;;;;10.00;99.90;;;;;;5071447;28;19912;-71
2022/12/15 15:36:19;;;;;;;;;;;10.00;99.90;;;;;;5071696;28;20031;-71
2022/12/15 15:38:45;;;;;;;;;;;10.00;99.90;;;;;;5064474;28;19959;-72
2022/12/15 15:41:15;;;;;;;;;;;10.00;99.90;;;;;;5066477;28;19962;-71
2022/12/15 15:43:41;;;;;;;;;;;10.00;99.90;;;;;;5069596;28;20329;-72
2022/12/15 15:46:11;;;;;;;;;;;10.00;99.90;;;;;;5071720;28;20012;-72
2022/12/15 15:48:57;;;;;;;;;;;10.10;99.90;;;;;;5070639;28;19912;-72
2022/12/15 15:51:24;;;;;;;;;;;10.10;99.90;;;;;;5069533;28;19912;-71
2022/12/15 15:53:50;;;;;;;;;;;10.00;99.90;;;;;;5061354;28;20347;-71
2022/12/15 15:56:16;;;;;;;;;;;10.10;99.90;;;;;;5070339;28;19923;-71
2022/12/15 15:58:42;;;;;;;;;;;10.10;99.90;;;;;;5050483;28;20016;-72
2022/12/15 16:01:08;;;;;;;;;;;10.20;99.90;;;;;;5066927;28;20008;-72
2022/12/15 16:03:34;;;;;;;;;;;10.10;99.90;;;;;;5063073;28;19913;-71
2022/12/15 16:06:00;;;;;;;;;;;10.10;99.90;;;;;;5070511;28;20283;-71
2022/12/15 16:08:29;;;;;;;;;;;10.20;99.90;;;;;;5069558;28;19962;-71
2022/12/15 16:10:55;;;;;;;;;;;10.10;99.90;;;;;;5073913;28;19988;-71
2022/12/15 16:13:21;;;;;;;;;;;10.10;99.90;;;;;;5068143;28;20400;-71
2022/12/15 16:15:47;;;;;;;;;;;10.10;99.90;;;;;;5070780;28;19936;-71
2022/12/15 16:18:13;;;;;;;;;;;10.20;99.90;;;;;;5071742;28;20000;-71
2022/12/15 16:20:40;;;;;;;;;;;10.30;99.90;;;;;;5073423;28;20715;-71
2022/12/15 16:23:10;;;;;;;;;;;10.20;99.90;;;;;;5072581;28;19917;-71
2022/12/15 16:25:37;;;;;;;;;;;10.20;99.90;;;;;;5073525;28;20019;-73
2022/12/15 16:28:10;;;;;;;;;;;10.20;99.90;;;;;;5072542;28;19931;-70
2022/12/15 16:30:35;;;;;;;;;;;10.20;99.90;;;;;;5049438;28;19956;-71
2022/12/15 16:33:01;;;;;;;;;;;10.20;99.90;;;;;;5075243;28;20395;-71
2022/12/15 16:35:26;;;;;;;;;;;10.30;99.90;;;;;;5072984;28;19948;-71
2022/12/15 16:37:52;;;;;;;;;;;10.20;99.90;;;;;;5071882;28;19912;-71
2022/12/15 16:40:21;;;;;;;;;;;10.30;99.90;;;;;;5066704;28;20364;-72
2022/12/15 16:42:53;;;;;;;;;;;10.40;99.90;;;;;;5073418;28;19920;-71
2022/12/15 16:45:19;;;;;;;;;;;10.40;99.90;;;;;;5067528;28;20292;-70
2022/12/15 16:47:45;;;;;;;;;;;10.40;99.90;;;;;;5069365;28;19913;-71
2022/12/15 16:50:12;;;;;;;;;;;10.50;99.90;;;;;;5069226;28;20535;-71
2022/12/15 16:52:38;;;;;;;;;;;10.50;99.90;;;;;;5071347;28;19919;-71
2022/12/15 16:55:04;;;;;;;;;;;10.50;99.90;;;;;;5075389;28;19923;-71
2022/12/15 16:57:30;;;;;;;;;;;10.60;99.90;;;;;;5060837;28;19928;-72
2022/12/15 16:59:56;;;;;;;;;;;10.60;99.90;;;;;;5064901;28;21652;-71
2022/12/15 17:02:24;;;;;;;;;;;10.60;99.90;;;;;;5071142;28;19967;-71
2022/12/15 17:04:50;;;;;;;;;;;10.60;99.90;;;;;;5073844;28;19912;-72
2022/12/15 17:07:16;;;;;;;;;;;10.60;99.90;;;;;;5056681;28;19920;-71